Mammoth, Utah
Current Conditions -  °F | °C
As of 1:55 AM on Sunday 23 Nov 2014 (Local Time) from KDTA Reporting Station
Clear Clear  
Wind Chill: 29°   Ceiling: Unl
Heat Index: 33°   Visibility: 10mi
Dew Point: 32°   Wind: 5mph
Humidity: 96%   Direction: 340°NNW
Pressure: 30.04"   Gusts: NA
Location:  39.7579°N, 112.326°W
Report Text: KDTA 230855Z AUTO 34004KT 10SM CLR 01/00 A3004 RMK AO1 T00070001
Loading
Personal Weather Stations






























Interactive Weather Map New forecast layout! Learn more

10-Day Weather Forecast

Advertisements
Track Severe Weather on mobile